Aplicació Alertes

Dades de l'estació automàtica l'Aldea

?
?
Resum diari 22:30 TU
Dades diàries de l'estació meteorològica
Temperatura mitjana 9.5 °C
Temperatura màxima 13.6 °C 13:57 TU
Temperatura mínima 6.9 °C 7:21 TU
Humitat relativa mitjana 44%
Precipitació acumulada 0.0 mm
Ratxa màxima del vent (2 m) 44.3 km/h - 313º 0:39 TU
Irradiació solar global 9.7 MJ/m2

El tram horari està expressat en Temps Universal (TU). Cal sumar una hora en horari d'hivern i dues en horari d'estiu per passar a l'hora oficial.

l'Aldea

Metadades estació meteorol´gica
Municipi L'Aldea
Comarca Baix Ebre
Altitud 62 m
Data alta 03.06.1991
Estat actual Operativa
Dades de període
Període
TU
TM
°C
TX
°C
TN
°C
HRM
%
PPT
mm
VVM (2 m)
km/h
DVM (2 m)
graus
VVX (2 m)
km/h
RS
W/m2
00:00 - 00:30 7.8 7.8 7.7 50 0.0 14.8 326 36.0 0
00:30 - 01:00 7.6 7.7 7.5 50 0.0 15.1 320 44.3 0
01:00 - 01:30 7.5 7.6 7.5 50 0.0 15.1 318 38.5 0
01:30 - 02:00 7.5 7.6 7.4 51 0.0 16.2 321 40.3 0
02:00 - 02:30 7.3 7.4 7.2 52 0.0 15.8 320 33.5 0
02:30 - 03:00 7.2 7.3 7.1 51 0.0 15.5 326 37.1 0
03:00 - 03:30 7.4 7.5 7.3 49 0.0 14.0 322 35.6 0
03:30 - 04:00 7.4 7.5 7.3 47 0.0 14.8 322 33.1 0
04:00 - 04:30 7.3 7.3 7.2 46 0.0 14.4 321 33.1 0
04:30 - 05:00 7.2 7.2 7.2 48 0.0 14.0 315 32.8 0
05:00 - 05:30 7.2 7.2 7.1 50 0.0 13.7 312 30.2 0
05:30 - 06:00 7.2 7.3 7.2 53 0.0 14.8 315 32.4 0
06:00 - 06:30 7.2 7.3 7.2 53 0.0 13.7 316 35.6 0
06:30 - 07:00 7.1 7.3 7.0 53 0.0 11.5 320 27.4 0
07:00 - 07:30 7.0 7.1 6.9 52 0.0 9.4 315 28.1 6
07:30 - 08:00 7.2 7.5 7.0 52 0.0 10.8 319 27.0 55
08:00 - 08:30 7.7 8.0 7.5 51 0.0 10.4 317 28.1 118
08:30 - 09:00 8.3 8.6 8.0 50 0.0 11.9 319 26.6 217
09:00 - 09:30 8.9 9.2 8.6 47 0.0 11.9 326 27.0 293
09:30 - 10:00 9.6 10.0 9.3 43 0.0 10.8 323 27.4 357
10:00 - 10:30 10.3 10.6 10.0 41 0.0 10.1 321 25.2 409
10:30 - 11:00 10.9 11.4 10.6 39 0.0 8.3 327 23.0 448
11:00 - 11:30 11.5 11.7 11.2 36 0.0 8.3 324 22.0 473
11:30 - 12:00 11.7 12.1 11.4 34 0.0 8.3 319 22.0 484
12:00 - 12:30 12.2 12.3 12.0 32 0.0 7.6 318 22.0 478
12:30 - 13:00 12.7 13.1 12.4 30 0.0 7.9 311 23.4 460
13:00 - 13:30 13.0 13.2 12.9 29 0.0 7.2 306 21.2 426
13:30 - 14:00 13.2 13.6 13.0 28 0.0 5.8 314 18.7 379
14:00 - 14:30 13.4 13.5 13.2 27 0.0 5.8 309 16.6 321
14:30 - 15:00 13.1 13.3 12.9 28 0.0 6.1 305 19.1 252
15:00 - 15:30 12.8 13.2 12.5 29 0.0 6.1 302 17.3 175
15:30 - 16:00 12.1 12.4 11.8 31 0.0 5.0 302 13.7 49
16:00 - 16:30 11.3 11.7 11.0 34 0.0 3.6 302 12.2 14
16:30 - 17:00 10.6 10.9 10.2 37 0.0 2.9 306 9.4 2
17:00 - 17:30 10.4 10.6 10.2 40 0.0 5.0 296 18.0 0
17:30 - 18:00 10.5 10.6 10.4 42 0.0 6.8 301 20.5 0
18:00 - 18:30 10.3 10.5 10.1 45 0.0 5.4 295 18.0 0
18:30 - 19:00 10.0 10.2 9.9 48 0.0 6.1 285 20.5 0
19:00 - 19:30 10.0 10.2 9.9 48 0.0 7.6 306 20.2 0
19:30 - 20:00 10.0 10.1 9.9 46 0.0 8.3 310 23.8 0
20:00 - 20:30 9.8 10.1 9.6 47 0.0 8.3 309 22.0 0
20:30 - 21:00 9.6 9.7 9.5 49 0.0 8.6 302 25.9 0
21:00 - 21:30 9.5 9.7 9.4 50 0.0 8.6 294 25.9 0
21:30 - 22:00 9.5 9.6 9.4 52 0.0 9.0 308 26.6 0
22:00 - 22:30 9.4 9.5 9.4 52 0.0 9.4 320 27.7 0
22:30 - 23:00 9.5 9.6 9.4 52 0.0 8.3 305 25.6 0
23:00 - 23:30 (s/d) (s/d) (s/d) (s/d) (s/d) (s/d) (s/d) (s/d) (s/d)

Les dades en taronja només han passat un control de qualitat automàtic. Resta pendent la seva validació definitiva.